Time;durP1;ratioP1;P1;durP2;ratioP2;P2;SDS_P1;SDS_P2;PMS_P1;PMS_P2;Temp;Humidity;BMP_temperature;BMP_pressure;BME280_temperature;BME280_humidity;BME280_pressure;Samples;Min_cycle;Max_cycle;Signal;HPM_P1;HPM_P2
2021/04/26 00:01:43;;;;;;;8.57;2.50;;;5.70;88.00;;;;;;4979199;28;20366;-35
2021/04/26 00:04:09;;;;;;;8.07;2.47;;;5.70;88.00;;;;;;4979833;28;20465;-36
2021/04/26 00:06:34;;;;;;;6.38;2.75;;;5.60;88.10;;;;;;4977028;28;20119;-37
2021/04/26 00:09:00;;;;;;;9.18;2.50;;;5.60;88.10;;;;;;4973206;28;20050;-34
2021/04/26 00:11:25;;;;;;;9.75;2.90;;;5.60;88.20;;;;;;4974925;28;20019;-36
2021/04/26 00:13:51;;;;;;;5.72;2.20;;;5.60;88.30;;;;;;4966471;28;20033;-37
2021/04/26 00:16:16;;;;;;;4.53;2.30;;;5.60;88.20;;;;;;4975761;28;20427;-39
2021/04/26 00:18:42;;;;;;;7.72;2.40;;;5.50;88.20;;;;;;4965858;28;20023;-36
2021/04/26 00:21:08;;;;;;;7.85;2.45;;;5.60;88.20;;;;;;4976429;28;20043;-36
2021/04/26 00:23:37;;;;;;;9.40;2.80;;;5.50;88.20;;;;;;4964664;28;20170;-39
2021/04/26 00:26:02;;;;;;;7.85;2.50;;;5.50;88.40;;;;;;4977215;28;20121;-38
2021/04/26 00:28:28;;;;;;;7.32;2.40;;;5.50;88.40;;;;;;4964622;28;20042;-39
2021/04/26 00:30:53;;;;;;;5.68;2.25;;;5.50;88.50;;;;;;4977052;28;20253;-39
2021/04/26 00:33:19;;;;;;;7.15;2.85;;;5.40;88.40;;;;;;4969525;28;20133;-37
2021/04/26 00:35:47;;;;;;;6.70;2.42;;;5.40;88.50;;;;;;4977145;28;20472;-38
2021/04/26 00:38:13;;;;;;;7.65;2.45;;;5.40;88.50;;;;;;4971050;28;20095;-36
2021/04/26 00:40:38;;;;;;;6.15;2.47;;;5.30;88.40;;;;;;4975529;28;20106;-35
2021/04/26 00:43:04;;;;;;;11.88;2.85;;;5.30;88.50;;;;;;4972912;28;20077;-37
2021/04/26 00:45:30;;;;;;;5.55;2.60;;;5.30;88.60;;;;;;4972716;28;20190;-39
2021/04/26 00:47:55;;;;;;;7.55;2.42;;;5.20;88.60;;;;;;4975855;28;20049;-38
2021/04/26 00:50:31;;;;;;;10.55;3.05;;;5.20;88.90;;;;;;4970295;28;20081;-38
2021/04/26 00:52:59;;;;;;;8.73;2.72;;;5.20;88.90;;;;;;4977015;28;20048;-36
2021/04/26 00:55:27;;;;;;;11.77;2.78;;;5.20;89.00;;;;;;4969582;28;20052;-38
2021/04/26 00:57:53;;;;;;;10.25;2.95;;;5.20;89.20;;;;;;4967941;28;20169;-35
2021/04/26 01:00:19;;;;;;;8.40;3.42;;;5.10;89.20;;;;;;4969959;28;20109;-38
2021/04/26 01:02:45;;;;;;;5.15;2.30;;;5.10;89.30;;;;;;4976846;28;20109;-38
2021/04/26 01:05:14;;;;;;;11.70;2.55;;;5.10;89.40;;;;;;4986780;28;20691;-34
2021/04/26 01:07:40;;;;;;;12.73;2.70;;;5.00;89.50;;;;;;4971063;28;20062;-37
2021/04/26 01:10:10;;;;;;;5.13;2.53;;;5.00;89.60;;;;;;4967667;28;20061;-32
2021/04/26 01:12:58;;;;;;;4.63;2.15;;;5.00;89.60;;;;;;4980023;28;20030;-38
2021/04/26 01:15:32;;;;;;;9.60;2.40;;;4.90;89.70;;;;;;4968320;28;20046;-38
2021/04/26 01:18:09;;;;;;;6.88;2.72;;;5.00;89.90;;;;;;4975029;28;20050;-35
2021/04/26 01:20:49;;;;;;;10.57;3.88;;;4.90;90.00;;;;;;4987585;28;20053;-37
2021/04/26 01:23:32;;;;;;;9.93;2.90;;;4.90;90.10;;;;;;4982242;28;20485;-36
2021/04/26 01:26:01;;;;;;;7.07;2.75;;;4.80;90.10;;;;;;4968330;28;20034;-38
2021/04/26 01:28:50;;;;;;;10.82;2.97;;;4.80;90.20;;;;;;4978705;28;20049;-37
2021/04/26 01:31:20;;;;;;;6.47;2.63;;;4.80;90.30;;;;;;4969537;28;20430;-35
2021/04/26 01:33:51;;;;;;;5.75;2.88;;;4.80;90.30;;;;;;4978216;28;20106;-38
2021/04/26 01:36:20;;;;;;;11.63;3.17;;;4.70;90.40;;;;;;4967972;28;20030;-38
2021/04/26 01:38:47;;;;;;;12.55;3.70;;;4.70;90.40;;;;;;4978027;28;20027;-35
2021/04/26 01:41:14;;;;;;;7.20;2.60;;;4.70;90.50;;;;;;4967519;28;20328;-39
2021/04/26 01:43:42;;;;;;;7.20;3.17;;;4.70;90.50;;;;;;4978990;28;20466;-37
2021/04/26 01:46:14;;;;;;;9.93;2.60;;;4.70;90.50;;;;;;4966576;28;20697;-37
2021/04/26 01:48:44;;;;;;;7.45;2.17;;;4.70;90.50;;;;;;4972135;28;20404;-39
2021/04/26 01:51:12;;;;;;;5.82;2.67;;;4.60;90.40;;;;;;4986671;28;20113;-38
2021/04/26 01:53:39;;;;;;;7.13;3.47;;;4.60;90.40;;;;;;4981938;28;20069;-34
2021/04/26 01:56:08;;;;;;;6.20;3.30;;;4.60;90.50;;;;;;4967227;28;20320;-38
2021/04/26 01:58:38;;;;;;;6.82;2.65;;;4.60;90.60;;;;;;4976624;28;20351;-41
2021/04/26 02:01:05;;;;;;;7.00;3.03;;;4.60;90.50;;;;;;4968070;28;20090;-37
2021/04/26 02:03:33;;;;;;;5.90;2.90;;;4.60;90.50;;;;;;4974911;28;20045;-37
2021/04/26 02:05:59;;;;;;;7.50;3.10;;;4.60;90.60;;;;;;4970772;28;20430;-38
2021/04/26 02:08:26;;;;;;;6.22;2.40;;;4.60;90.60;;;;;;4973978;28;20046;-31
2021/04/26 02:10:52;;;;;;;8.63;3.35;;;4.60;90.70;;;;;;4970956;28;20475;-36
2021/04/26 02:13:20;;;;;;;9.15;3.47;;;4.60;90.70;;;;;;4970068;28;20427;-38
2021/04/26 02:15:48;;;;;;;6.57;2.75;;;4.60;90.70;;;;;;4975028;28;20015;-39
2021/04/26 02:18:14;;;;;;;8.73;2.90;;;4.60;90.70;;;;;;4968254;28;20023;-39
2021/04/26 02:20:39;;;;;;;5.45;2.67;;;4.50;90.70;;;;;;4977326;28;20038;-35
2021/04/26 02:23:05;;;;;;;8.55;3.45;;;4.50;90.70;;;;;;4967214;28;20018;-38
2021/04/26 02:25:31;;;;;;;4.63;2.47;;;4.50;90.80;;;;;;4977650;28;20149;-37
2021/04/26 02:27:57;;;;;;;5.18;2.92;;;4.50;90.80;;;;;;4966696;28;20455;-37
2021/04/26 02:30:23;;;;;;;9.02;2.63;;;4.50;90.80;;;;;;4978738;28;20019;-37
2021/04/26 02:33:02;;;;;;;5.38;2.35;;;4.50;90.80;;;;;;4966839;28;20416;-36
2021/04/26 02:35:49;;;;;;;7.15;3.17;;;4.50;90.80;;;;;;4977938;28;20027;-30
2021/04/26 02:38:21;;;;;;;8.55;2.60;;;4.50;90.80;;;;;;4960075;28;20042;-37
2021/04/26 02:40:52;;;;;;;8.18;2.72;;;4.50;90.80;;;;;;4970244;28;20029;-38
2021/04/26 02:43:19;;;;;;;8.50;2.20;;;4.40;90.70;;;;;;4985912;28;20037;-39
2021/04/26 02:45:50;;;;;;;6.25;2.38;;;4.40;90.70;;;;;;4973186;28;20125;-38
2021/04/26 02:48:17;;;;;;;5.53;2.20;;;4.40;90.70;;;;;;4986074;28;20104;-37
2021/04/26 02:50:44;;;;;;;5.00;2.05;;;4.40;90.70;;;;;;4972851;28;20025;-36
2021/04/26 02:53:12;;;;;;;7.18;2.40;;;4.40;90.60;;;;;;4985652;28;20064;-37
2021/04/26 02:55:39;;;;;;;4.43;2.17;;;4.40;90.60;;;;;;4973482;28;20154;-37
2021/04/26 02:58:05;;;;;;;6.90;2.10;;;4.40;90.60;;;;;;4984183;28;20114;-38
2021/04/26 03:00:31;;;;;;;6.10;2.33;;;4.40;90.60;;;;;;4976038;28;20387;-38
2021/04/26 03:02:57;;;;;;;4.38;2.13;;;4.40;90.60;;;;;;4981523;28;20116;-37
2021/04/26 03:05:24;;;;;;;5.38;2.10;;;4.40;90.70;;;;;;4978673;28;20038;-31
2021/04/26 03:07:50;;;;;;;8.05;2.13;;;4.30;90.60;;;;;;4978054;28;20513;-35
2021/04/26 03:10:19;;;;;;;4.47;2.17;;;4.30;90.70;;;;;;4969339;28;20050;-37
2021/04/26 03:12:49;;;;;;;6.80;2.60;;;4.40;90.70;;;;;;4973692;28;20018;-36
2021/04/26 03:15:18;;;;;;;3.80;2.00;;;4.30;90.80;;;;;;4968231;28;20486;-37
2021/04/26 03:17:45;;;;;;;7.68;2.35;;;4.30;90.70;;;;;;4974560;28;20109;-39
2021/04/26 03:20:15;;;;;;;9.80;2.60;;;4.30;90.80;;;;;;4967089;28;20492;-36
2021/04/26 03:22:42;;;;;;;6.00;2.45;;;4.20;90.80;;;;;;4976256;28;20050;-37
2021/04/26 03:25:09;;;;;;;7.70;2.53;;;4.20;90.80;;;;;;4966142;28;20436;-39
2021/04/26 03:27:35;;;;;;;5.03;2.00;;;4.20;90.90;;;;;;4976058;28;20248;-38
2021/04/26 03:30:03;;;;;;;4.72;2.40;;;4.20;90.90;;;;;;4965558;28;20073;-38
2021/04/26 03:32:29;;;;;;;7.65;2.30;;;4.20;90.90;;;;;;4968925;28;20030;-38
2021/04/26 03:34:55;;;;;;;6.53;2.55;;;4.20;91.00;;;;;;4984889;28;20907;-35
2021/04/26 03:37:21;;;;;;;7.70;2.63;;;4.10;91.20;;;;;;4972585;28;20427;-32
2021/04/26 03:39:48;;;;;;;9.50;3.00;;;4.10;91.20;;;;;;4984385;28;20049;-38
2021/04/26 03:42:15;;;;;;;5.55;2.45;;;4.10;91.30;;;;;;4973735;28;20031;-37
2021/04/26 03:44:43;;;;;;;8.38;3.05;;;4.10;91.50;;;;;;4984183;28;20054;-39
2021/04/26 03:47:09;;;;;;;8.77;2.38;;;4.10;91.60;;;;;;4974692;28;20038;-38
2021/04/26 03:49:35;;;;;;;4.25;2.40;;;4.00;91.70;;;;;;4981667;28;20029;-38
2021/04/26 03:52:04;;;;;;;6.47;3.05;;;4.00;91.60;;;;;;4977581;28;20054;-36
2021/04/26 03:54:30;;;;;;;6.68;2.78;;;4.00;91.80;;;;;;4979494;28;20441;-38
2021/04/26 03:56:56;;;;;;;5.72;3.05;;;4.00;91.80;;;;;;4979708;28;20027;-38
2021/04/26 03:59:21;;;;;;;8.98;2.65;;;3.90;92.00;;;;;;4977070;28;20042;-39
2021/04/26 04:01:48;;;;;;;5.60;2.40;;;3.90;92.00;;;;;;4981636;28;20042;-38
2021/04/26 04:04:13;;;;;;;3.97;2.75;;;3.90;92.10;;;;;;4974821;28;20076;-38
2021/04/26 04:06:39;;;;;;;6.15;2.38;;;3.90;92.20;;;;;;4985797;28;20062;-37
2021/04/26 04:09:06;;;;;;;5.28;2.35;;;3.90;92.20;;;;;;4980691;28;20050;-38
2021/04/26 04:11:32;;;;;;;5.68;2.72;;;3.80;92.20;;;;;;4987459;28;20341;-38
2021/04/26 04:13:58;;;;;;;7.47;2.35;;;3.90;92.20;;;;;;4976631;28;20098;-39
2021/04/26 04:16:26;;;;;;;5.35;2.35;;;3.90;92.20;;;;;;4988529;28;20145;-34
2021/04/26 04:18:51;;;;;;;3.90;2.35;;;3.80;92.10;;;;;;4975994;28;20034;-37
2021/04/26 04:21:17;;;;;;;7.95;2.78;;;3.80;92.20;;;;;;4988227;28;20093;-38
2021/04/26 04:23:42;;;;;;;6.57;2.90;;;3.80;92.50;;;;;;4975413;28;20126;-35
2021/04/26 04:26:09;;;;;;;6.88;2.90;;;3.80;92.30;;;;;;4987963;28;20109;-33
2021/04/26 04:28:41;;;;;;;5.88;2.78;;;3.80;92.50;;;;;;4977711;28;20035;-38
2021/04/26 04:31:06;;;;;;;6.07;2.85;;;3.80;92.60;;;;;;4986799;28;20069;-37
2021/04/26 04:33:33;;;;;;;8.38;2.70;;;3.80;92.50;;;;;;4979569;28;20502;-36
2021/04/26 04:35:58;;;;;;;5.82;2.85;;;3.80;92.60;;;;;;4983570;28;20061;-35
2021/04/26 04:38:27;;;;;;;7.18;2.85;;;3.80;92.70;;;;;;4982236;28;20031;-37
2021/04/26 04:40:54;;;;;;;6.72;2.65;;;3.80;93.00;;;;;;4982131;28;20034;-38
2021/04/26 04:43:20;;;;;;;9.55;2.83;;;3.80;92.90;;;;;;4984177;28;20033;-35
2021/04/26 04:45:47;;;;;;;8.65;4.05;;;3.80;92.70;;;;;;4979665;28;20048;-36
2021/04/26 04:48:12;;;;;;;6.55;1.90;;;3.80;92.70;;;;;;4986354;28;20077;-39
2021/04/26 04:50:38;;;;;;;5.93;2.95;;;3.80;92.80;;;;;;4976850;28;20065;-38
2021/04/26 04:53:04;;;;;;;8.27;2.95;;;3.80;92.70;;;;;;4987153;28;20057;-39
2021/04/26 04:55:29;;;;;;;9.02;3.30;;;3.80;92.70;;;;;;4977369;28;20072;-39
2021/04/26 04:57:55;;;;;;;5.78;2.90;;;3.90;92.80;;;;;;4988035;28;20501;-41
2021/04/26 05:00:21;;;;;;;3.88;2.38;;;3.90;92.70;;;;;;4976443;28;20023;-36
2021/04/26 05:02:46;;;;;;;7.18;2.70;;;3.90;92.70;;;;;;4987738;28;20030;-34
2021/04/26 05:05:12;;;;;;;8.15;2.40;;;3.90;92.80;;;;;;4976024;28;20038;-37
2021/04/26 05:07:38;;;;;;;9.27;2.78;;;3.90;92.70;;;;;;4988609;28;20045;-38
2021/04/26 05:10:04;;;;;;;7.78;3.47;;;3.90;92.90;;;;;;4979900;28;20122;-37
2021/04/26 05:12:30;;;;;;;10.05;2.63;;;4.00;92.70;;;;;;4969198;28;20133;-32
2021/04/26 05:14:55;;;;;;;6.05;2.50;;;4.00;92.70;;;;;;4976109;28;20046;-36
2021/04/26 05:17:21;;;;;;;5.82;2.88;;;4.00;92.70;;;;;;4971106;28;20121;-33
2021/04/26 05:19:46;;;;;;;9.48;2.78;;;4.10;92.80;;;;;;4973234;28;20041;-35
2021/04/26 05:22:12;;;;;;;6.88;2.65;;;4.10;92.70;;;;;;4975017;28;20525;-37
2021/04/26 05:24:39;;;;;;;6.63;3.50;;;4.10;92.80;;;;;;4970436;28;20023;-35
2021/04/26 05:27:06;;;;;;;7.85;3.10;;;4.10;92.80;;;;;;4976544;28;20038;-36
2021/04/26 05:29:31;;;;;;;4.47;2.30;;;4.20;92.80;;;;;;4969367;28;20381;-39
2021/04/26 05:31:57;;;;;;;6.00;2.80;;;4.20;92.80;;;;;;4978186;28;20487;-36
2021/04/26 05:34:23;;;;;;;7.00;2.67;;;4.30;92.80;;;;;;4969485;28;20023;-31
2021/04/26 05:36:48;;;;;;;6.53;3.08;;;4.30;92.70;;;;;;4978614;28;20390;-37
2021/04/26 05:39:14;;;;;;;9.80;3.20;;;4.40;92.80;;;;;;4967297;28;20158;-37
2021/04/26 05:41:40;;;;;;;5.50;2.78;;;4.40;92.80;;;;;;4979693;28;20034;-38
2021/04/26 05:44:06;;;;;;;8.32;2.83;;;4.50;92.60;;;;;;4967846;28;20575;-38
2021/04/26 05:46:31;;;;;;;8.00;3.47;;;4.60;92.50;;;;;;4979220;28;20022;-35
2021/04/26 05:48:57;;;;;;;6.80;2.50;;;4.60;92.50;;;;;;4967903;28;20031;-38
2021/04/26 05:51:23;;;;;;;7.03;2.50;;;4.60;92.40;;;;;;4978116;28;20041;-35
2021/04/26 05:53:48;;;;;;;8.40;2.58;;;4.60;92.40;;;;;;4968888;28;20031;-35
2021/04/26 05:56:14;;;;;;;10.85;2.83;;;4.70;92.40;;;;;;4975435;28;20088;-38
2021/04/26 05:58:40;;;;;;;3.90;2.28;;;4.70;92.40;;;;;;4972126;28;20102;-39
2021/04/26 06:01:05;;;;;;;5.25;2.50;;;4.70;92.30;;;;;;4972038;28;20105;-39
2021/04/26 06:03:31;;;;;;;7.03;3.20;;;4.70;92.30;;;;;;4974337;28;20427;-36
2021/04/26 06:05:57;;;;;;;9.02;3.13;;;4.80;92.30;;;;;;4969798;28;20114;-37
2021/04/26 06:08:23;;;;;;;11.82;2.90;;;4.80;92.30;;;;;;4980331;28;20037;-38
2021/04/26 06:10:48;;;;;;;12.55;3.28;;;4.80;92.20;;;;;;4984481;28;20613;-34
2021/04/26 06:13:14;;;;;;;10.32;3.08;;;4.90;92.10;;;;;;4975351;28;20026;-36
2021/04/26 06:15:39;;;;;;;12.98;3.30;;;4.90;92.00;;;;;;4985218;28;20052;-39
2021/04/26 06:18:08;;;;;;;7.13;3.15;;;5.00;92.00;;;;;;4975125;28;20053;-36
2021/04/26 06:20:33;;;;;;;5.13;2.90;;;5.10;91.90;;;;;;4986095;28;20073;-38
2021/04/26 06:22:59;;;;;;;10.50;2.83;;;5.10;91.80;;;;;;4974398;28;20085;-38
2021/04/26 06:25:24;;;;;;;6.95;2.92;;;5.20;91.70;;;;;;4986541;28;20046;-39
2021/04/26 06:27:56;;;;;;;6.32;2.72;;;5.20;91.60;;;;;;4972715;28;20483;-37
2021/04/26 06:30:22;;;;;;;7.82;2.72;;;5.30;91.40;;;;;;4986306;28;20049;-34
2021/04/26 06:32:47;;;;;;;7.60;2.30;;;5.40;91.20;;;;;;4975364;28;20073;-38
2021/04/26 06:35:13;;;;;;;8.77;2.97;;;5.40;91.10;;;;;;4984269;28;20026;-36
2021/04/26 06:37:38;;;;;;;6.88;3.00;;;5.50;91.00;;;;;;4977920;28;20102;-35
2021/04/26 06:40:05;;;;;;;7.30;3.05;;;5.60;90.80;;;;;;4981799;28;20449;-35
2021/04/26 06:42:33;;;;;;;4.70;2.22;;;5.60;90.70;;;;;;4979618;28;20509;-39
2021/04/26 06:44:58;;;;;;;5.57;2.72;;;5.70;90.50;;;;;;4979537;28;20061;-35
2021/04/26 06:47:24;;;;;;;3.95;2.33;;;5.70;90.20;;;;;;4983218;28;20038;-38
2021/04/26 06:49:49;;;;;;;6.05;2.40;;;5.80;90.10;;;;;;4976592;28;20118;-38
2021/04/26 06:52:15;;;;;;;5.03;2.55;;;5.90;90.00;;;;;;4984861;28;20442;-39
2021/04/26 06:54:41;;;;;;;8.85;3.42;;;5.90;89.80;;;;;;4975341;28;20022;-38
2021/04/26 06:57:06;;;;;;;6.72;2.80;;;6.00;89.40;;;;;;4984414;28;20026;-39
2021/04/26 06:59:32;;;;;;;7.10;2.92;;;6.00;89.20;;;;;;4974873;28;20026;-39
2021/04/26 07:01:57;;;;;;;4.18;2.70;;;6.10;89.20;;;;;;4986321;28;20029;-37
2021/04/26 07:04:23;;;;;;;9.60;3.58;;;6.20;89.10;;;;;;4972867;28;20130;-36
2021/04/26 07:06:49;;;;;;;4.72;2.33;;;6.20;89.10;;;;;;4985550;28;20061;-39
2021/04/26 07:09:14;;;;;;;3.83;1.95;;;6.20;89.10;;;;;;4982712;28;20058;-35
2021/04/26 07:11:41;;;;;;;4.68;2.20;;;6.30;89.10;;;;;;4985674;28;20315;-37
2021/04/26 07:14:06;;;;;;;5.88;2.72;;;6.30;88.60;;;;;;4978889;28;20527;-36
2021/04/26 07:16:34;;;;;;;3.65;1.90;;;6.40;88.70;;;;;;4968124;28;20037;-37
2021/04/26 07:19:00;;;;;;;6.13;2.47;;;6.40;88.50;;;;;;4973863;28;20026;-37
2021/04/26 07:21:26;;;;;;;4.25;2.55;;;6.50;88.10;;;;;;4971001;28;20104;-38
2021/04/26 07:23:54;;;;;;;5.40;2.50;;;6.60;87.90;;;;;;4970693;28;20462;-39
2021/04/26 07:26:19;;;;;;;4.72;2.55;;;6.60;87.10;;;;;;4972832;28;20066;-39
2021/04/26 07:28:45;;;;;;;4.90;2.28;;;6.70;87.70;;;;;;4968917;28;20070;-39
2021/04/26 07:31:10;;;;;;;4.60;2.70;;;6.70;87.10;;;;;;4975255;28;20026;-37
2021/04/26 07:33:36;;;;;;;4.00;2.38;;;6.80;86.00;;;;;;4967058;28;20031;-32
2021/04/26 07:36:02;;;;;;;7.75;2.50;;;6.80;85.90;;;;;;4977002;28;20075;-37
2021/04/26 07:38:27;;;;;;;3.53;2.20;;;6.90;85.30;;;;;;4967266;28;20508;-38
2021/04/26 07:40:53;;;;;;;3.85;2.30;;;6.90;85.50;;;;;;4976362;28;20412;-37
2021/04/26 07:43:18;;;;;;;7.22;2.30;;;7.00;85.50;;;;;;4966470;28;20121;-39
2021/04/26 07:45:44;;;;;;;5.03;2.83;;;7.00;85.20;;;;;;4977630;28;20030;-38
2021/04/26 07:48:10;;;;;;;3.67;2.03;;;7.10;84.50;;;;;;4965668;28;20419;-34
2021/04/26 07:50:35;;;;;;;3.45;2.20;;;7.20;83.80;;;;;;4977848;28;20023;-38
2021/04/26 07:53:01;;;;;;;4.47;2.35;;;7.30;83.00;;;;;;4965749;28;20039;-38
2021/04/26 07:55:26;;;;;;;6.13;3.05;;;7.40;82.80;;;;;;4970211;28;20104;-34
2021/04/26 07:57:52;;;;;;;3.83;2.20;;;7.40;82.50;;;;;;4981983;28;20018;-38
2021/04/26 08:00:18;;;;;;;5.43;2.45;;;7.50;81.80;;;;;;4978083;28;20542;-38
2021/04/26 08:02:44;;;;;;;6.03;2.47;;;7.60;81.20;;;;;;4979627;28;20504;-35
2021/04/26 08:05:11;;;;;;;4.38;2.08;;;7.70;80.70;;;;;;4968885;28;20069;-35
2021/04/26 08:07:36;;;;;;;5.22;1.80;;;7.70;80.50;;;;;;4975458;28;20116;-39
2021/04/26 08:10:03;;;;;;;4.18;2.63;;;7.80;80.20;;;;;;4980914;28;20640;-37
2021/04/26 08:12:29;;;;;;;6.78;2.45;;;7.90;79.30;;;;;;4973270;28;20553;-38
2021/04/26 08:14:55;;;;;;;2.95;2.03;;;7.90;77.80;;;;;;4982019;28;20015;-38
2021/04/26 08:17:20;;;;;;;5.32;2.50;;;8.00;77.90;;;;;;4973357;28;20386;-36
2021/04/26 08:19:46;;;;;;;3.10;1.92;;;8.00;78.40;;;;;;4983381;28;20057;-35
2021/04/26 08:22:12;;;;;;;2.92;2.00;;;8.10;78.80;;;;;;4973938;28;20054;-38
2021/04/26 08:24:38;;;;;;;2.58;1.77;;;8.10;77.80;;;;;;4985269;28;20030;-38
2021/04/26 08:27:04;;;;;;;3.92;2.22;;;8.20;77.10;;;;;;4972381;28;20061;-36
2021/04/26 08:29:30;;;;;;;3.65;2.03;;;8.20;76.30;;;;;;4984871;28;20453;-36
2021/04/26 08:31:55;;;;;;;5.93;2.10;;;8.30;75.70;;;;;;4973084;28;20119;-39
2021/04/26 08:34:21;;;;;;;3.40;2.15;;;8.30;75.00;;;;;;4984641;28;20076;-38
2021/04/26 08:36:47;;;;;;;3.90;1.92;;;8.40;74.20;;;;;;4975345;28;20042;-39
2021/04/26 08:39:15;;;;;;;3.80;1.92;;;8.40;74.90;;;;;;4982533;28;20030;-38
2021/04/26 08:41:41;;;;;;;3.60;2.00;;;8.50;75.30;;;;;;4977361;28;20037;-38
2021/04/26 08:44:06;;;;;;;3.22;2.00;;;8.60;75.00;;;;;;4979951;28;20030;-37
2021/04/26 08:46:32;;;;;;;4.63;1.80;;;8.70;74.90;;;;;;4980543;28;20023;-35
2021/04/26 08:48:58;;;;;;;4.13;2.20;;;8.70;75.10;;;;;;4977110;28;20084;-39
2021/04/26 08:51:24;;;;;;;3.92;1.65;;;8.80;73.80;;;;;;4982963;28;20035;-36
2021/04/26 08:53:49;;;;;;;7.95;2.63;;;8.80;73.80;;;;;;4977480;28;20410;-37
2021/04/26 08:56:15;;;;;;;4.57;2.35;;;8.90;73.80;;;;;;4986559;28;20419;-36
2021/04/26 08:58:41;;;;;;;4.57;3.08;;;8.90;73.50;;;;;;4977140;28;20775;-38
2021/04/26 09:01:07;;;;;;;4.13;2.28;;;9.00;72.90;;;;;;4987903;28;20136;-35
2021/04/26 09:03:35;;;;;;;6.53;2.35;;;9.10;72.90;;;;;;4976162;28;20713;-38
2021/04/26 09:06:01;;;;;;;3.35;2.33;;;9.10;73.20;;;;;;4988191;28;20090;-38
2021/04/26 09:08:28;;;;;;;5.30;2.13;;;9.10;73.30;;;;;;4974509;28;20439;-38
2021/04/26 09:11:00;;;;;;;4.50;2.53;;;9.20;73.40;;;;;;4968131;28;20054;-38
2021/04/26 09:13:41;;;;;;;5.82;2.38;;;9.20;72.30;;;;;;4980781;28;20033;-36
2021/04/26 09:16:24;;;;;;;4.28;2.20;;;9.30;72.10;;;;;;4968285;28;20046;-34
2021/04/26 09:18:55;;;;;;;4.60;2.33;;;9.40;71.80;;;;;;4980247;28;20574;-37
2021/04/26 09:21:44;;;;;;;3.53;2.35;;;9.50;71.90;;;;;;4968726;28;20054;-37
2021/04/26 09:24:25;;;;;;;3.17;1.98;;;9.50;71.70;;;;;;4979903;28;20471;-38
2021/04/26 09:27:15;;;;;;;4.63;2.45;;;9.60;71.90;;;;;;4968199;28;20049;-39
2021/04/26 09:29:41;;;;;;;3.97;2.10;;;9.70;71.60;;;;;;4968641;28;20027;-34
2021/04/26 09:32:18;;;;;;;4.50;2.53;;;9.70;71.90;;;;;;4968222;28;20097;-38
2021/04/26 09:34:51;;;;;;;3.13;2.05;;;9.80;71.90;;;;;;4984247;28;20031;-38
2021/04/26 09:37:28;;;;;;;5.60;2.13;;;9.80;71.90;;;;;;4987216;28;20029;-40
2021/04/26 09:39:57;;;;;;;5.13;2.40;;;9.80;70.80;;;;;;4984115;28;20030;-38
2021/04/26 09:42:48;;;;;;;3.28;2.00;;;9.90;70.50;;;;;;4987661;28;20419;-37
2021/04/26 09:45:26;;;;;;;10.80;2.45;;;9.90;70.30;;;;;;4976238;28;20042;-38
2021/04/26 09:48:19;;;;;;;3.97;2.42;;;10.00;70.00;;;;;;4985999;28;20053;-37
2021/04/26 09:50:55;;;;;;;;;;;10.00;70.20;;;;;;4978128;28;20029;-39
2021/04/26 09:53:22;;;;;;;3.20;2.22;;;10.00;67.80;;;;;;4983664;28;19910;-37
2021/04/26 09:55:49;;;;;;;5.15;2.40;;;10.10;67.40;;;;;;4978282;28;20088;-38
2021/04/26 09:58:15;;;;;;;4.82;2.50;;;10.20;67.40;;;;;;4972267;28;20030;-38
2021/04/26 10:00:43;;;;;;;3.92;2.17;;;10.20;66.90;;;;;;4978531;28;20060;-36
2021/04/26 10:03:09;;;;;;;6.72;2.15;;;10.20;67.30;;;;;;4967499;28;20502;-39
2021/04/26 10:05:35;;;;;;;5.00;2.10;;;10.20;67.10;;;;;;4978960;28;20038;-39
2021/04/26 10:08:01;;;;;;;3.58;1.98;;;10.20;67.50;;;;;;4967584;28;20046;-39
2021/04/26 10:10:26;;;;;;;3.92;2.05;;;10.30;68.00;;;;;;4979378;28;20055;-36
2021/04/26 10:12:52;;;;;;;3.05;1.90;;;10.30;68.00;;;;;;4966920;28;20113;-38
2021/04/26 10:15:27;;;;;;;2.38;1.65;;;10.40;68.10;;;;;;4978895;28;20022;-37
2021/04/26 10:17:55;;;;;;;4.03;2.80;;;10.50;68.50;;;;;;4967622;28;20043;-37
2021/04/26 10:20:35;;;;;;;5.60;3.15;;;10.50;67.40;;;;;;4970844;28;20439;-37
2021/04/26 10:23:01;;;;;;;5.45;2.65;;;10.70;67.20;;;;;;4986576;28;20022;-37
2021/04/26 10:25:41;;;;;;;5.05;2.63;;;10.80;66.80;;;;;;4977214;28;20062;-36
2021/04/26 10:28:33;;;;;;;5.05;2.70;;;10.90;66.60;;;;;;4985446;28;20040;-35
2021/04/26 10:31:10;;;;;;;6.47;2.80;;;10.90;65.80;;;;;;4974110;28;20034;-37
2021/04/26 10:33:55;;;;;;;5.38;2.97;;;10.90;65.90;;;;;;4986218;28;20125;-36
2021/04/26 10:36:56;;;;;;;4.05;2.22;;;11.00;66.20;;;;;;4974213;28;20455;-38
2021/04/26 10:39:24;;;;;;;2.80;1.95;;;11.10;66.70;;;;;;4986596;28;20022;-37
2021/04/26 10:41:53;;;;;;;3.58;2.60;;;11.20;66.80;;;;;;4973868;28;20387;-34
2021/04/26 10:44:40;;;;;;;3.78;2.20;;;11.20;66.50;;;;;;4986607;28;20450;-37
2021/04/26 10:47:28;;;;;;;3.88;2.45;;;11.30;66.40;;;;;;4977531;28;20375;-38
2021/04/26 10:50:17;;;;;;;5.47;2.60;;;11.40;66.40;;;;;;4979680;28;20109;-38
2021/04/26 10:52:48;;;;;;;4.15;2.67;;;11.40;66.10;;;;;;4977468;28;20073;-37
2021/04/26 10:55:19;;;;;;;3.00;2.10;;;11.50;66.00;;;;;;4968238;28;20033;-33
2021/04/26 10:57:49;;;;;;;3.00;2.28;;;11.60;66.10;;;;;;4981998;28;20034;-38
2021/04/26 11:00:21;;;;;;;3.75;1.98;;;11.70;65.90;;;;;;4981380;28;20092;-38
2021/04/26 11:03:05;;;;;;;4.07;2.10;;;11.70;66.10;;;;;;4973659;28;20033;-38
2021/04/26 11:05:34;;;;;;;5.78;2.30;;;11.70;66.10;;;;;;4983464;28;20042;-37
2021/04/26 11:08:15;;;;;;;3.70;2.30;;;11.70;65.40;;;;;;4974125;28;20041;-34
2021/04/26 11:10:54;;;;;;;2.50;2.00;;;11.80;65.30;;;;;;4967147;28;20050;-35
2021/04/26 11:13:32;;;;;;;4.05;2.83;;;11.80;65.70;;;;;;4976721;28;20056;-35
2021/04/26 11:16:18;;;;;;;5.22;2.20;;;11.80;64.40;;;;;;4965632;28;20113;-40
2021/04/26 11:18:58;;;;;;;3.35;2.33;;;11.90;64.50;;;;;;4976286;28;20144;-38
2021/04/26 11:21:47;;;;;;;4.32;2.40;;;11.90;64.50;;;;;;4981559;28;20117;-37
2021/04/26 11:24:38;;;;;;;4.45;1.95;;;11.90;64.20;;;;;;4974142;28;20097;-37
2021/04/26 11:27:13;;;;;;;4.05;2.22;;;11.90;64.40;;;;;;4971917;28;20448;-37
2021/04/26 11:29:41;;;;;;;5.20;2.35;;;12.00;64.50;;;;;;4970889;28;20129;-33
2021/04/26 11:32:08;;;;;;;2.67;1.85;;;12.00;64.40;;;;;;4968119;28;20030;-38
2021/04/26 11:35:12;;;;;;;3.55;2.17;;;12.10;64.60;;;;;;4980484;28;20485;-37
2021/04/26 11:37:37;;;;;;;5.80;2.28;;;12.10;64.90;;;;;;4979095;28;20100;-38
2021/04/26 11:40:33;;;;;;;3.50;2.30;;;12.00;64.40;;;;;;4982875;28;20399;-36
2021/04/26 11:43:08;;;;;;;2.85;2.10;;;12.00;64.80;;;;;;4975756;28;20049;-39
2021/04/26 11:45:36;;;;;;;3.53;2.40;;;12.00;64.90;;;;;;4984102;28;20053;-37
2021/04/26 11:48:02;;;;;;;3.35;2.47;;;12.00;64.30;;;;;;4975790;28;20031;-37
2021/04/26 11:50:28;;;;;;;4.20;2.40;;;12.10;64.50;;;;;;4979819;28;20106;-35
2021/04/26 11:52:54;;;;;;;5.45;3.10;;;12.10;64.30;;;;;;4981244;28;20355;-37
2021/04/26 11:55:23;;;;;;;4.60;3.22;;;12.20;63.80;;;;;;4972660;28;21214;-37
2021/04/26 11:57:57;;;;;;;4.18;2.53;;;12.30;64.00;;;;;;4971180;28;20099;-38
2021/04/26 12:00:27;;;;;;;4.72;2.60;;;12.40;64.10;;;;;;4973866;28;20214;-37
2021/04/26 12:03:01;;;;;;;2.60;1.98;;;12.40;63.80;;;;;;4968051;28;20529;-39
2021/04/26 12:05:27;;;;;;;7.15;2.63;;;12.50;63.40;;;;;;4974379;28;20117;-36
2021/04/26 12:07:54;;;;;;;2.97;2.00;;;12.50;62.90;;;;;;4967215;28;20034;-37
2021/04/26 12:10:25;;;;;;;3.75;2.30;;;12.50;63.10;;;;;;4970106;28;20053;-44
2021/04/26 12:13:03;;;;;;;4.75;2.25;;;12.60;63.40;;;;;;4967160;28;20082;-36
2021/04/26 12:15:30;;;;;;;6.07;2.13;;;12.70;63.30;;;;;;4976581;28;20035;-42
2021/04/26 12:18:00;;;;;;;2.20;2.00;;;12.70;63.10;;;;;;4966797;28;20015;-39
2021/04/26 12:20:34;;;;;;;4.85;2.45;;;12.80;63.30;;;;;;4976355;28;20023;-37
2021/04/26 12:23:15;;;;;;;5.20;2.75;;;12.80;62.60;;;;;;4966801;28;20102;-38
2021/04/26 12:25:42;;;;;;;2.65;2.38;;;12.80;62.20;;;;;;4976199;28;20433;-37
2021/04/26 12:28:09;;;;;;;3.20;2.30;;;12.70;62.40;;;;;;4968719;28;20034;-38
2021/04/26 12:30:43;;;;;;;6.22;2.38;;;12.70;62.70;;;;;;4980330;28;20041;-39
2021/04/26 12:33:30;;;;;;;5.05;2.67;;;12.70;63.00;;;;;;4969127;28;20573;-38
2021/04/26 12:35:57;;;;;;;3.45;1.92;;;12.80;63.20;;;;;;4986752;28;20038;-38
2021/04/26 12:38:28;;;;;;;4.57;2.92;;;12.90;63.00;;;;;;4988394;28;20019;-42
2021/04/26 12:40:54;;;;;;;2.65;1.77;;;12.90;62.40;;;;;;4968609;28;20050;-37
2021/04/26 12:43:20;;;;;;;3.80;2.30;;;12.90;61.70;;;;;;4969771;28;20497;-32
2021/04/26 12:45:48;;;;;;;4.30;2.30;;;13.00;61.30;;;;;;4981154;28;20015;-38
2021/04/26 12:48:30;;;;;;;6.70;2.65;;;13.00;61.50;;;;;;4968819;28;20130;-38
2021/04/26 12:50:56;;;;;;;4.47;2.13;;;13.00;61.70;;;;;;4980874;28;20026;-38
2021/04/26 12:53:42;;;;;;;3.75;2.20;;;13.00;60.50;;;;;;4969677;28;20030;-39
2021/04/26 12:56:20;;;;;;;4.93;2.25;;;12.90;60.10;;;;;;4980599;28;20022;-38
2021/04/26 12:58:48;;;;;;;8.10;3.00;;;13.00;58.40;;;;;;4968874;28;20025;-39
2021/04/26 13:01:14;;;;;;;7.70;2.67;;;13.00;58.30;;;;;;4980797;28;20109;-36
2021/04/26 13:03:58;;;;;;;7.22;2.50;;;13.10;58.60;;;;;;4968570;28;20117;-39
2021/04/26 13:06:47;;;;;;;3.97;2.40;;;13.10;56.50;;;;;;4981345;28;20046;-40